Time;durP1;ratioP1;P1;durP2;ratioP2;P2;SDS_P1;SDS_P2;PMS_P1;PMS_P2;Temp;Humidity;BMP_temperature;BMP_pressure;BME280_temperature;BME280_humidity;BME280_pressure;Samples;Min_cycle;Max_cycle;Signal;HPM_P1;HPM_P2
2022/08/21 00:01:52;;;;;;;8.85;3.63;;;;;;;27.47;47.58;98111.72;4959507;28;20109;-89
2022/08/21 00:04:18;;;;;;;8.80;3.70;;;;;;;27.48;47.20;98111.47;4943820;28;20038;-90
2022/08/21 00:06:43;;;;;;;7.90;3.65;;;;;;;27.49;47.35;98105.06;4943131;28;20038;-88
2022/08/21 00:09:09;;;;;;;16.35;3.88;;;;;;;27.44;47.16;98105.00;4976116;28;20066;-85
2022/08/21 00:11:35;;;;;;;13.68;3.83;;;;;;;27.44;47.38;98105.00;4958981;28;20113;-86
2022/08/21 00:14:01;;;;;;;8.18;3.33;;;;;;;27.44;46.95;98103.13;4942937;28;20031;-87
2022/08/21 00:16:26;;;;;;;7.45;3.47;;;;;;;27.40;46.43;98090.44;4942748;28;20023;-87
2022/08/21 00:18:52;;;;;;;9.63;3.78;;;;;;;27.43;46.11;98100.69;4959013;28;20104;-87
2022/08/21 00:21:17;;;;;;;9.32;3.80;;;;;;;27.40;45.54;98093.91;4958566;28;20035;-88
2022/08/21 00:23:43;;;;;;;8.25;3.60;;;;;;;27.40;45.41;98095.78;4938697;29;20046;-87
2022/08/21 00:26:08;;;;;;;12.13;3.47;;;;;;;27.37;45.17;98085.56;4923715;29;20024;-87
2022/08/21 00:28:34;;;;;;;12.30;3.83;;;;;;;27.38;44.83;98079.16;4923376;29;20067;-87
2022/08/21 00:30:59;;;;;;;8.23;3.47;;;;;;;27.42;45.54;98088.31;4923289;29;20047;-87
2022/08/21 00:33:25;;;;;;;10.10;3.40;;;;;;;27.37;45.54;98089.06;4923280;29;20046;-87
2022/08/21 00:35:51;;;;;;;10.38;4.25;;;;;;;27.32;45.63;98083.59;4923922;29;20031;-87
2022/08/21 00:38:16;;;;;;;10.10;3.72;;;;;;;27.36;45.94;98081.28;4923215;29;20042;-87
2022/08/21 00:40:45;;;;;;;6.10;3.50;;;;;;;27.24;46.63;98092.81;4939198;29;20064;-86
2022/08/21 00:43:12;;;;;;;7.70;3.70;;;;;;;27.29;46.62;98088.63;4923320;29;20479;-87
2022/08/21 00:45:37;;;;;;;9.25;4.05;;;;;;;27.10;47.45;98082.66;4907436;29;20170;-86
2022/08/21 00:48:03;;;;;;;7.85;4.00;;;;;;;27.06;47.62;98101.88;4923305;29;20534;-87
2022/08/21 00:50:32;;;;;;;10.27;3.80;;;;;;;27.05;47.46;98099.44;4923346;29;20533;-87
2022/08/21 00:52:57;;;;;;;10.13;3.88;;;;;;;27.09;47.95;98105.97;4923240;29;20031;-87
2022/08/21 00:55:26;;;;;;;12.43;4.15;;;;;;;27.18;48.52;98104.50;4940787;29;20194;-87
2022/08/21 00:57:52;;;;;;;12.40;3.50;;;;;;;27.23;48.43;98107.28;4940137;28;20042;-87
2022/08/21 01:00:24;;;;;;;8.00;3.80;;;;;;;27.25;47.80;98107.03;4941987;28;20509;-85
2022/08/21 01:02:49;;;;;;;10.30;3.70;;;;;;;27.30;48.29;98103.66;4926791;28;20423;-86
2022/08/21 01:05:16;;;;;;;9.20;3.90;;;;;;;27.31;47.55;98094.56;4956729;28;20093;-84
2022/08/21 01:07:41;;;;;;;6.15;3.53;;;;;;;27.30;46.28;98085.69;4926351;28;20035;-89
2022/08/21 01:10:07;;;;;;;7.40;3.47;;;;;;;27.33;46.44;98085.25;4941994;28;20046;-89
2022/08/21 01:12:33;;;;;;;10.00;3.90;;;;;;;27.35;46.71;98085.00;4942028;28;20046;-89
2022/08/21 01:14:59;;;;;;;7.75;3.47;;;;;;;27.36;46.78;98075.91;4925465;28;20051;-89
2022/08/21 01:17:24;;;;;;;9.70;3.90;;;;;;;27.36;46.42;98059.84;4957486;28;20037;-89
2022/08/21 01:19:50;;;;;;;9.07;3.85;;;;;;;27.42;46.32;98066.88;4941615;28;20079;-90
2022/08/21 01:22:15;;;;;;;7.82;3.65;;;;;;;27.50;46.85;98076.38;4957486;28;20093;-91
2022/08/21 01:24:41;;;;;;;9.95;4.20;;;;;;;27.49;47.55;98075.59;4957391;28;20038;-91
2022/08/21 01:27:06;;;;;;;5.28;3.38;;;;;;;27.47;47.51;98079.56;4957406;28;20089;-87
2022/08/21 01:29:36;;;;;;;6.95;3.40;;;;;;;27.45;47.15;98071.75;4941403;28;20039;-86
2022/08/21 01:32:08;;;;;;;10.10;3.97;;;;;;;27.44;47.15;98057.56;4957783;28;20034;-87
2022/08/21 01:34:34;;;;;;;6.93;3.90;;;;;;;27.39;47.59;98056.66;4925837;28;20129;-84
2022/08/21 01:36:59;;;;;;;8.77;3.75;;;;;;;27.35;47.61;98034.88;4925355;28;20383;-85
2022/08/21 01:39:25;;;;;;;9.20;3.83;;;;;;;27.52;47.56;98029.53;4971198;28;20045;-84
2022/08/21 01:41:50;;;;;;;6.20;3.55;;;;;;;27.65;47.04;98016.88;4993812;28;20038;-85
2022/08/21 01:44:16;;;;;;;6.60;3.33;;;;;;;27.78;46.48;98011.16;4976809;28;20038;-84
2022/08/21 01:46:41;;;;;;;13.38;3.72;;;;;;;27.89;46.37;98012.91;4944403;28;20027;-83
2022/08/21 01:49:07;;;;;;;7.70;3.58;;;;;;;27.91;46.37;98002.75;4993785;28;20545;-85
2022/08/21 01:51:32;;;;;;;7.72;3.65;;;;;;;27.99;46.37;97998.88;4960028;28;20517;-84
2022/08/21 01:53:58;;;;;;;5.47;3.08;;;;;;;28.02;46.16;97987.63;4960252;28;20042;-84
2022/08/21 01:56:24;;;;;;;8.38;3.60;;;;;;;28.09;45.86;97976.72;4940864;28;20490;-83
2022/08/21 01:58:49;;;;;;;5.82;3.40;;;;;;;28.07;46.05;97957.38;4956721;28;20058;-82
2022/08/21 02:01:15;;;;;;;8.10;3.60;;;;;;;28.12;46.04;97968.19;4956776;28;20030;-86
2022/08/21 02:03:41;;;;;;;5.47;3.38;;;;;;;28.11;45.78;97970.03;4941135;28;20041;-91
2022/08/21 02:06:07;;;;;;;7.75;3.40;;;;;;;28.14;45.90;97979.47;4955713;28;20073;-86
2022/08/21 02:08:33;;;;;;;5.00;3.28;;;;;;;28.17;46.01;97984.34;4940221;28;20557;-86
2022/08/21 02:10:59;;;;;;;7.40;3.70;;;;;;;28.15;46.09;97989.16;4940775;28;20023;-81
2022/08/21 02:13:25;;;;;;;8.15;3.70;;;;;;;28.15;46.39;97998.00;4941235;28;20031;-80
2022/08/21 02:15:51;;;;;;;7.35;3.25;;;;;;;28.20;47.11;97999.13;4924571;28;20055;-76
2022/08/21 02:18:17;;;;;;;10.85;3.58;;;;;;;28.21;47.11;98006.09;4973853;28;20062;-76
2022/08/21 02:20:46;;;;;;;15.63;3.78;;;;;;;28.28;47.23;98023.66;4956323;28;20031;-76
2022/08/21 02:23:12;;;;;;;10.05;3.55;;;;;;;28.25;46.78;98032.19;4956143;28;20067;-73
2022/08/21 02:25:38;;;;;;;8.75;3.30;;;;;;;28.11;46.76;98021.00;4956613;28;20450;-73
2022/08/21 02:28:05;;;;;;;11.95;3.60;;;;;;;28.07;46.67;98040.53;4940131;28;20062;-73
2022/08/21 02:30:33;;;;;;;7.13;3.58;;;;;;;27.90;47.03;98054.78;4940392;28;20546;-73
2022/08/21 02:32:59;;;;;;;;;;;;;;;27.85;46.93;98046.66;4941010;28;20513;-73
2022/08/21 02:35:24;;;;;;;9.18;3.40;;;;;;;27.79;47.04;98040.41;4972350;28;19910;-73
2022/08/21 02:38:00;;;;;;;9.93;3.83;;;;;;;27.79;47.07;98040.41;4956044;28;20030;-73
2022/08/21 02:40:27;;;;;;;7.78;3.40;;;;;;;27.77;47.36;98036.34;4941819;28;20030;-74
2022/08/21 02:42:53;;;;;;;8.15;3.55;;;;;;;27.79;47.70;98047.63;4940535;28;20106;-75
2022/08/21 02:45:18;;;;;;;15.95;3.53;;;;;;;27.82;47.76;98049.81;4955941;28;20043;-73
2022/08/21 02:47:51;;;;;;;17.05;4.28;;;;;;;27.91;47.26;98056.41;4924500;28;20031;-74
2022/08/21 02:50:22;;;;;;;22.50;3.83;;;;;;;27.91;47.24;98051.03;4956006;28;20035;-72
2022/08/21 02:52:47;;;;;;;16.02;3.38;;;;;;;27.76;47.35;98046.25;4940109;28;20042;-72
2022/08/21 02:55:13;;;;;;;13.30;3.70;;;;;;;27.66;47.48;98047.97;4925922;29;20051;-72
2022/08/21 02:57:38;;;;;;;12.70;3.58;;;;;;;27.57;47.97;98052.94;4921055;29;20038;-72
2022/08/21 03:00:05;;;;;;;15.82;3.83;;;;;;;27.40;48.09;98050.25;4921079;29;20047;-72
2022/08/21 03:02:30;;;;;;;11.98;3.47;;;;;;;27.33;48.66;98060.31;4921431;29;20031;-72
2022/08/21 03:04:56;;;;;;;14.30;3.10;;;;;;;27.38;48.87;98066.56;4905087;29;20403;-71
2022/08/21 03:07:21;;;;;;;14.73;3.92;;;;;;;27.46;48.71;98073.41;4920830;29;20035;-72
2022/08/21 03:09:47;;;;;;;15.40;3.78;;;;;;;27.47;48.48;98069.66;4920934;29;20039;-71
2022/08/21 03:12:12;;;;;;;11.23;3.40;;;;;;;27.51;48.28;98078.81;4920696;29;20050;-72
2022/08/21 03:14:38;;;;;;;8.63;3.50;;;;;;;27.53;48.61;98078.59;4920733;29;20042;-72
2022/08/21 03:17:04;;;;;;;9.70;3.60;;;;;;;27.52;48.43;98076.97;4920728;29;20098;-71
2022/08/21 03:19:30;;;;;;;9.85;3.15;;;;;;;27.49;47.85;98075.59;4937562;28;20121;-72
2022/08/21 03:21:55;;;;;;;8.98;3.72;;;;;;;27.54;48.05;98083.72;4940112;28;20471;-72
2022/08/21 03:24:20;;;;;;;11.45;3.58;;;;;;;27.49;47.96;98077.47;4956086;28;20066;-72
2022/08/21 03:26:46;;;;;;;6.45;3.55;;;;;;;27.51;47.71;98092.22;4955677;28;20454;-72
2022/08/21 03:29:11;;;;;;;10.40;3.50;;;;;;;27.54;47.76;98099.78;4959379;28;20035;-72
2022/08/21 03:31:37;;;;;;;9.23;3.80;;;;;;;27.56;47.54;98105.75;4959507;28;20031;-72
2022/08/21 03:34:02;;;;;;;7.93;3.55;;;;;;;27.54;47.73;98097.09;4926687;28;20434;-72
2022/08/21 03:36:28;;;;;;;6.13;3.25;;;;;;;27.50;47.61;98111.22;4927886;28;20077;-71
2022/08/21 03:38:54;;;;;;;12.15;3.60;;;;;;;27.42;47.51;98102.56;4959822;28;20471;-71
2022/08/21 03:41:19;;;;;;;8.35;3.08;;;;;;;27.44;47.62;98115.72;4959580;28;20058;-71
2022/08/21 03:43:45;;;;;;;12.70;3.65;;;;;;;27.46;47.33;98118.97;4943160;28;20037;-71
2022/08/21 03:46:10;;;;;;;8.90;3.70;;;;;;;27.49;47.34;98125.72;4943072;28;20027;-72
2022/08/21 03:48:36;;;;;;;14.88;3.42;;;;;;;27.53;47.15;98124.16;4927308;28;20035;-72
2022/08/21 03:51:02;;;;;;;11.32;3.90;;;;;;;27.60;46.98;98131.00;4942930;28;20383;-71
2022/08/21 03:53:28;;;;;;;13.27;3.75;;;;;;;27.58;46.75;98135.78;4941060;28;20541;-71
2022/08/21 03:55:54;;;;;;;9.30;3.78;;;;;;;27.55;47.02;98132.78;4933746;28;20055;-71
2022/08/21 03:58:21;;;;;;;7.05;3.05;;;;;;;27.56;46.40;98140.59;4927071;28;20031;-71
2022/08/21 04:00:48;;;;;;;5.63;3.22;;;;;;;27.50;46.73;98132.69;4943141;28;20035;-72
2022/08/21 04:03:14;;;;;;;8.80;3.17;;;;;;;27.67;46.16;98146.09;4926588;28;20392;-72
2022/08/21 04:05:40;;;;;;;13.70;3.42;;;;;;;27.60;45.87;98130.19;4926837;28;20058;-71
2022/08/21 04:08:06;;;;;;;12.05;3.38;;;;;;;27.72;45.91;98143.50;4927008;28;20030;-72
2022/08/21 04:10:34;;;;;;;10.23;3.67;;;;;;;27.77;45.72;98132.88;4942795;28;20097;-73
2022/08/21 04:12:59;;;;;;;;;;;;;;;27.80;45.43;98140.44;4927585;28;20110;-72
2022/08/21 04:15:25;;;;;;;9.48;3.28;;;;;;;27.83;45.47;98133.75;4959021;28;20386;-71
2022/08/21 04:17:50;;;;;;;12.80;3.60;;;;;;;27.83;45.74;98131.88;4942754;28;20041;-71
2022/08/21 04:20:19;;;;;;;8.45;3.20;;;;;;;27.85;45.45;98137.84;4926623;28;20392;-71
2022/08/21 04:22:45;;;;;;;11.38;3.10;;;;;;;27.94;45.34;98138.22;4926997;28;20074;-72
2022/08/21 04:25:11;;;;;;;13.27;2.97;;;;;;;27.96;45.17;98138.84;4931669;29;20031;-70
2022/08/21 04:27:37;;;;;;;9.45;3.40;;;;;;;27.97;45.09;98130.56;4926448;28;20038;-71
2022/08/21 04:30:03;;;;;;;9.43;3.75;;;;;;;28.13;44.71;98123.53;4941947;28;20042;-71
2022/08/21 04:32:29;;;;;;;10.55;3.55;;;;;;;28.51;43.87;98127.28;4942226;28;20030;-72
2022/08/21 04:35:03;;;;;;;7.38;3.13;;;;;;;28.45;43.93;98125.59;4942747;28;20117;-71
2022/08/21 04:37:29;;;;;;;12.30;3.40;;;;;;;28.46;43.99;98134.44;4943021;28;20505;-71
2022/08/21 04:39:57;;;;;;;9.40;3.28;;;;;;;28.42;44.01;98130.66;4940968;28;20109;-71
2022/08/21 04:42:27;;;;;;;11.75;3.25;;;;;;;28.44;44.10;98129.31;4942136;28;20047;-70
2022/08/21 04:44:53;;;;;;;8.10;3.30;;;;;;;28.48;43.83;98126.94;4941834;28;20090;-71
2022/08/21 04:47:18;;;;;;;9.40;3.20;;;;;;;28.49;44.02;98120.53;4941709;28;20043;-70
2022/08/21 04:49:44;;;;;;;7.57;3.20;;;;;;;28.57;43.70;98130.03;4926278;28;20450;-72
2022/08/21 04:52:10;;;;;;;12.98;3.08;;;;;;;28.58;43.67;98111.00;4926302;28;20042;-72
2022/08/21 04:54:35;;;;;;;12.45;3.28;;;;;;;28.68;43.81;98118.38;4938519;29;20101;-72
2022/08/21 04:57:03;;;;;;;12.80;2.83;;;;;;;28.72;43.54;98122.19;4959803;28;20414;-71
2022/08/21 04:59:35;;;;;;;11.32;3.30;;;;;;;28.79;43.53;98120.13;4961638;28;20513;-72
2022/08/21 05:02:01;;;;;;;11.25;3.30;;;;;;;28.85;43.34;98121.00;4961820;28;20077;-72
2022/08/21 05:04:29;;;;;;;7.95;3.03;;;;;;;28.89;43.35;98119.41;4960709;28;20050;-72
2022/08/21 05:06:57;;;;;;;9.25;2.97;;;;;;;28.92;42.98;98123.50;4931737;28;20126;-71
2022/08/21 05:09:22;;;;;;;10.02;3.60;;;;;;;28.97;43.31;98123.53;4926127;28;20039;-71
2022/08/21 05:11:48;;;;;;;8.45;3.72;;;;;;;29.00;43.11;98123.03;4957750;28;20391;-72
2022/08/21 05:14:14;;;;;;;8.65;3.40;;;;;;;29.00;43.10;98123.88;4941493;28;20030;-72
2022/08/21 05:16:41;;;;;;;8.48;3.47;;;;;;;29.09;43.17;98128.78;4925366;28;20399;-72
2022/08/21 05:19:07;;;;;;;8.30;3.00;;;;;;;29.10;43.89;98128.53;4974593;28;20402;-71
2022/08/21 05:21:37;;;;;;;7.88;3.00;;;;;;;29.15;43.69;98128.56;4925768;28;20040;-72
2022/08/21 05:24:03;;;;;;;10.25;3.42;;;;;;;29.19;43.89;98134.28;4941465;28;20580;-71
2022/08/21 05:26:29;;;;;;;11.70;3.45;;;;;;;29.22;43.53;98133.78;4941273;28;20030;-77
2022/08/21 05:28:55;;;;;;;8.95;3.25;;;;;;;29.29;44.37;98131.72;4943189;28;20035;-82
2022/08/21 05:31:20;;;;;;;15.38;4.05;;;;;;;29.27;43.96;98141.91;4926928;28;20037;-75
2022/08/21 05:33:46;;;;;;;13.95;3.83;;;;;;;29.33;44.55;98132.00;4974959;28;20031;-74
2022/08/21 05:36:11;;;;;;;21.83;4.15;;;;;;;29.34;45.17;98141.69;4961561;28;20034;-86
2022/08/21 05:38:37;;;;;;;8.90;3.30;;;;;;;29.32;43.91;98138.44;4958258;28;20031;-78
2022/08/21 05:41:02;;;;;;;10.68;3.80;;;;;;;29.33;44.90;98140.88;4925281;28;20073;-73
2022/08/21 05:43:28;;;;;;;18.90;3.95;;;;;;;29.35;44.68;98148.69;4973941;28;20061;-74
2022/08/21 05:45:53;;;;;;;24.38;4.18;;;;;;;29.32;44.99;98138.44;4976555;28;20061;-75
2022/08/21 05:48:22;;;;;;;12.18;4.85;;;;;;;29.31;44.69;98153.75;4941031;28;20077;-80
2022/08/21 05:50:48;;;;;;;10.25;3.35;;;;;;;29.11;44.63;98151.63;4963181;28;20030;-78
2022/08/21 05:53:14;;;;;;;16.92;4.45;;;;;;;29.03;45.75;98155.59;4936837;28;20405;-79
2022/08/21 05:55:40;;;;;;;15.15;3.70;;;;;;;29.00;44.19;98161.47;4918690;28;20062;-77
2022/08/21 05:58:06;;;;;;;23.13;4.53;;;;;;;28.99;46.95;98162.53;4915120;28;20799;-80
2022/08/21 06:00:32;;;;;;;13.80;4.47;;;;;;;29.11;47.36;98170.44;4930048;28;20118;-74
2022/08/21 06:02:57;;;;;;;16.35;5.45;;;;;;;29.14;47.02;98155.69;4945288;28;20019;-72
2022/08/21 06:05:23;;;;;;;13.82;6.70;;;;;;;29.17;46.95;98161.38;4928181;29;20053;-76
2022/08/21 06:07:48;;;;;;;23.85;6.35;;;;;;;29.22;46.66;98160.66;4929402;28;20027;-75
2022/08/21 06:10:14;;;;;;;35.33;6.20;;;;;;;29.25;46.39;98162.84;4914152;28;20097;-76
2022/08/21 06:12:39;;;;;;;24.27;6.10;;;;;;;29.25;46.52;98156.66;4927967;28;20505;-78
2022/08/21 06:15:05;;;;;;;17.10;6.20;;;;;;;29.27;47.33;98155.34;4912538;28;20059;-74
2022/08/21 06:17:31;;;;;;;19.05;6.72;;;;;;;29.29;47.44;98157.75;4946362;28;20023;-74
2022/08/21 06:19:56;;;;;;;18.23;6.72;;;;;;;29.27;47.83;98158.03;4945473;28;20097;-80
2022/08/21 06:22:22;;;;;;;15.75;6.18;;;;;;;29.28;48.14;98165.03;4915636;28;20069;-76
2022/08/21 06:24:47;;;;;;;11.60;4.80;;;;;;;29.17;46.57;98161.38;4916139;29;20039;-79
2022/08/21 06:27:13;;;;;;;32.20;6.10;;;;;;;29.13;46.92;98162.13;4917681;28;20027;-72
2022/08/21 06:29:38;;;;;;;10.80;4.47;;;;;;;29.07;46.00;98163.97;4929256;28;20512;-75
2022/08/21 06:32:07;;;;;;;9.68;3.40;;;;;;;29.09;45.77;98158.34;4914709;28;20506;-80
2022/08/21 06:34:36;;;;;;;8.98;3.33;;;;;;;29.12;45.75;98155.16;4915006;28;20030;-73
2022/08/21 06:37:02;;;;;;;9.88;4.55;;;;;;;29.15;45.48;98160.81;4946088;28;20183;-75
2022/08/21 06:39:27;;;;;;;10.85;4.00;;;;;;;29.22;44.65;98153.41;4946990;28;20491;-74
2022/08/21 06:41:53;;;;;;;13.55;5.25;;;;;;;29.41;46.74;98163.81;4915476;28;20042;-80
2022/08/21 06:44:18;;;;;;;16.05;5.55;;;;;;;29.53;44.74;98156.41;4934548;28;20117;-75
2022/08/21 06:46:44;;;;;;;19.35;8.25;;;;;;;29.73;43.93;98150.41;4931606;28;20453;-77
2022/08/21 06:49:09;;;;;;;21.67;8.65;;;;;;;30.12;43.26;98147.47;4913816;28;20045;-80
2022/08/21 06:51:35;;;;;;;17.92;7.43;;;;;;;30.31;42.92;98149.75;4927849;28;20046;-77
2022/08/21 06:54:00;;;;;;;17.83;6.88;;;;;;;30.53;42.24;98141.56;4912140;28;20049;-77
2022/08/21 06:56:26;;;;;;;16.33;8.30;;;;;;;30.78;41.98;98143.53;4933636;28;20026;-76
2022/08/21 06:58:52;;;;;;;27.13;11.15;;;;;;;30.98;41.43;98142.84;4939033;28;20030;-76
2022/08/21 07:01:24;;;;;;;23.45;7.85;;;;;;;31.15;40.96;98134.56;4938983;28;20030;-79
2022/08/21 07:03:49;;;;;;;19.60;6.80;;;;;;;31.35;39.11;98138.34;4953505;28;20180;-78
2022/08/21 07:06:15;;;;;;;8.38;4.00;;;;;;;31.62;38.68;98140.03;4942728;28;20113;-80
2022/08/21 07:08:40;;;;;;;9.82;4.00;;;;;;;31.85;38.59;98149.44;4942583;28;20046;-76
2022/08/21 07:11:14;;;;;;;9.35;4.40;;;;;;;32.05;38.35;98140.53;4942157;28;20035;-76
2022/08/21 07:13:40;;;;;;;13.00;4.32;;;;;;;32.37;38.46;98140.25;4943449;28;20035;-78
2022/08/21 07:16:06;;;;;;;11.35;3.88;;;;;;;32.52;38.14;98131.28;4943239;28;20101;-79
2022/08/21 07:18:31;;;;;;;12.07;3.50;;;;;;;32.56;37.97;98134.22;4943746;28;20096;-79
2022/08/21 07:20:58;;;;;;;10.95;4.30;;;;;;;32.54;37.98;98131.00;4959317;28;20038;-80
2022/08/21 07:23:28;;;;;;;9.40;3.45;;;;;;;32.33;38.40;98131.06;4946554;28;20058;-82
2022/08/21 07:25:55;;;;;;;10.10;3.95;;;;;;;32.25;39.09;98134.34;4942204;28;20027;-79
2022/08/21 07:28:21;;;;;;;13.07;5.07;;;;;;;32.15;39.34;98120.84;4948668;28;20039;-80
2022/08/21 07:30:58;;;;;;;14.90;5.40;;;;;;;32.11;40.01;98126.00;4946643;28;20046;-78
2022/08/21 07:33:27;;;;;;;8.23;4.30;;;;;;;32.01;40.13;98117.88;4960140;28;20031;-77
2022/08/21 07:35:54;;;;;;;12.55;4.43;;;;;;;31.90;39.78;98115.19;4961513;28;20096;-81
2022/08/21 07:38:21;;;;;;;10.13;3.80;;;;;;;31.75;39.11;98117.88;4962068;28;20107;-80
2022/08/21 07:40:47;;;;;;;9.52;4.28;;;;;;;31.66;40.33;98109.53;4960320;28;20106;-80
2022/08/21 07:43:14;;;;;;;13.30;4.22;;;;;;;31.64;40.20;98117.09;4936021;28;20074;-84
2022/08/21 07:45:44;;;;;;;11.77;4.53;;;;;;;31.58;40.09;98106.56;4951879;28;20050;-82
2022/08/21 07:48:10;;;;;;;14.70;4.53;;;;;;;31.46;40.27;98102.22;4983466;28;20093;-80
2022/08/21 07:53:17;;;;;;;10.27;3.92;;;;;;;31.27;39.51;98090.34;5168212;23;20085;-82
2022/08/21 07:55:58;;;;;;;11.05;4.20;;;;;;;31.15;41.75;98091.41;4971968;28;20038;-86
2022/08/21 08:01:00;;;;;;;12.63;5.13;;;;;;;31.08;41.77;98088.16;5039120;23;20065;-85
2022/08/21 08:03:40;;;;;;;11.43;4.60;;;;;;;31.02;40.72;98084.63;5011057;28;20065;-90
2022/08/21 08:06:12;;;;;;;10.75;4.45;;;;;;;30.97;41.56;98079.25;5015799;28;20041;-88
2022/08/21 08:08:41;;;;;;;11.00;4.07;;;;;;;30.96;40.19;98074.09;5017682;28;20034;-89
2022/08/21 08:11:12;;;;;;;8.55;4.00;;;;;;;30.90;40.21;98073.28;5014338;28;20030;-88
2022/08/21 08:14:20;;;;;;;8.57;3.70;;;;;;;30.82;41.24;98069.22;4992211;28;20397;-86
2022/08/21 08:17:21;;;;;;;10.35;3.40;;;;;;;30.84;40.59;98068.97;4995658;28;20055;-90
2022/08/21 08:19:48;;;;;;;9.40;4.05;;;;;;;30.85;40.56;98071.38;4976956;28;20461;-88
2022/08/21 08:22:35;;;;;;;6.57;3.90;;;;;;;30.88;41.46;98063.84;4986104;28;20094;-86
2022/08/21 08:25:05;;;;;;;8.30;3.75;;;;;;;30.93;41.04;98063.84;4972898;28;20073;-87
2022/08/21 08:27:34;;;;;;;7.32;3.67;;;;;;;30.97;40.95;98063.06;4983791;28;20453;-88
2022/08/21 08:30:00;;;;;;;7.28;3.22;;;;;;;31.00;39.55;98057.16;4982870;28;20045;-83
2022/08/21 08:35:00;;;;;;;10.70;3.38;;;;;;;31.24;39.19;98055.84;5039736;23;20058;-87
2022/08/21 08:37:28;;;;;;;11.05;3.17;;;;;;;31.43;38.37;98051.53;4998572;28;20057;-77
2022/08/21 08:39:55;;;;;;;9.02;3.60;;;;;;;31.55;38.56;98043.19;5010922;28;20042;-85
2022/08/21 08:42:33;;;;;;;11.25;4.00;;;;;;;31.64;39.11;98032.66;5012963;28;20010;-89
2022/08/21 08:45:00;;;;;;;7.32;3.83;;;;;;;31.77;37.69;98032.13;5013666;28;20076;-84
2022/08/21 08:47:29;;;;;;;6.90;3.90;;;;;;;31.89;37.67;98037.19;4969160;23;20062;-89
2022/08/21 08:50:02;;;;;;;62.67;6.28;;;;;;;31.93;36.99;98030.19;4944986;29;20032;-88
2022/08/21 08:52:35;;;;;;;37.17;4.88;;;;;;;32.07;38.06;98033.91;4930410;29;20067;-87
2022/08/21 08:55:20;;;;;;;13.85;4.15;;;;;;;32.28;37.03;98040.06;4956571;29;20085;-87
2022/08/21 08:57:48;;;;;;;10.38;3.97;;;;;;;32.39;37.77;98031.94;4939963;29;20043;-87
2022/08/21 09:00:41;;;;;;;15.37;4.13;;;;;;;32.37;37.77;98021.41;4937011;28;20024;-82
2022/08/21 09:03:09;;;;;;;41.75;5.28;;;;;;;32.47;36.58;98026.75;4957175;29;20043;-88
2022/08/21 09:05:51;;;;;;;36.33;5.20;;;;;;;32.37;36.34;98016.03;4939469;29;20023;-89
2022/08/21 09:08:40;;;;;;;101.90;9.68;;;;;;;32.37;35.36;98023.28;4920122;29;20415;-88
2022/08/21 09:11:43;;;;;;;29.08;6.10;;;;;;;32.27;34.47;98022.25;4953136;29;20023;-86
2022/08/21 09:14:45;;;;;;;11.90;4.72;;;;;;;32.23;35.27;98018.50;4957288;29;20507;-89
2022/08/21 09:17:32;;;;;;;22.98;5.72;;;;;;;32.17;33.91;98022.31;4881646;29;20064;-86
2022/08/21 09:22:48;;;;;;;21.00;4.70;;;;;;;31.98;34.91;98013.19;4970806;26;20044;-90
2022/08/21 09:25:34;;;;;;;10.75;4.10;;;;;;;31.87;36.05;98021.28;5011550;28;20123;-88
2022/08/21 09:28:02;;;;;;;12.32;4.00;;;;;;;31.84;37.48;98018.34;4979290;28;20057;-88
2022/08/21 09:30:31;;;;;;;11.27;3.90;;;;;;;31.72;36.78;98018.59;4991318;28;20478;-87
2022/08/21 09:35:51;;;;;;;12.02;6.43;;;;;;;31.59;38.08;98013.78;5014345;28;20053;-83
2022/08/21 09:38:28;;;;;;;23.20;5.93;;;;;;;31.54;38.27;98003.81;4995921;28;20083;-78
2022/08/21 09:41:05;;;;;;;18.83;5.93;;;;;;;31.53;38.38;98000.31;4981482;28;20030;-83
2022/08/21 09:43:30;;;;;;;20.50;6.90;;;;;;;31.56;38.14;98013.25;4980236;28;20037;-77
2022/08/21 09:46:02;;;;;;;19.10;5.82;;;;;;;31.53;37.71;98005.72;4995528;28;20092;-78
2022/08/21 09:48:29;;;;;;;18.45;5.78;;;;;;;31.56;37.97;98015.97;5012793;28;20069;-77
2022/08/21 09:51:06;;;;;;;21.50;5.80;;;;;;;31.48;37.32;98019.16;4994888;28;20076;-77
2022/08/21 09:53:31;;;;;;;13.07;6.03;;;;;;;31.41;37.58;98015.94;4979162;28;20045;-77
2022/08/21 09:58:49;;;;;;;11.65;5.68;;;;;;;31.34;38.04;98020.78;4985428;28;20581;-77
2022/08/21 10:01:19;;;;;;;13.27;5.40;;;;;;;31.27;37.58;98018.38;4979203;28;20026;-77
2022/08/21 10:03:45;;;;;;;10.50;5.57;;;;;;;31.21;37.49;98014.03;4979485;28;20033;-78
2022/08/21 10:06:23;;;;;;;14.05;5.70;;;;;;;31.18;38.35;98017.28;4981832;28;20034;-78
2022/08/21 10:08:48;;;;;;;9.70;5.57;;;;;;;31.15;38.43;98013.25;4944298;28;20030;-77
2022/08/21 10:11:15;;;;;;;7.88;5.32;;;;;;;31.12;38.62;98011.09;4975989;28;20034;-78
2022/08/21 10:14:07;;;;;;;11.40;5.50;;;;;;;31.08;38.88;98011.91;4959971;28;20023;-76
2022/08/21 10:16:46;;;;;;;10.70;5.38;;;;;;;30.99;39.09;98012.41;4993917;28;20062;-77
2022/08/21 10:19:39;;;;;;;11.63;5.68;;;;;;;30.96;39.35;98012.97;4975879;28;20407;-77
2022/08/21 10:22:29;;;;;;;12.00;5.28;;;;;;;30.92;39.74;98005.66;4959764;28;20046;-78
2022/08/21 10:25:21;;;;;;;9.65;5.70;;;;;;;30.89;40.22;98007.00;4968343;28;20470;-78
2022/08/21 10:28:05;;;;;;;8.88;5.75;;;;;;;30.88;41.10;97996.47;4959781;28;20040;-77
2022/08/21 10:31:08;;;;;;;9.55;5.75;;;;;;;30.80;41.21;97995.91;4975581;28;20076;-77
2022/08/21 10:33:40;;;;;;;8.95;5.50;;;;;;;30.76;41.19;97996.72;4975713;28;20035;-77
2022/08/21 10:36:18;;;;;;;10.13;5.50;;;;;;;30.73;41.11;97995.38;4975904;28;20054;-78
2022/08/21 10:38:46;;;;;;;7.78;5.60;;;;;;;30.73;41.44;97997.28;4992841;28;20022;-77
2022/08/21 10:41:45;;;;;;;8.63;5.45;;;;;;;30.74;41.60;98002.41;4992996;28;20045;-78
2022/08/21 10:44:21;;;;;;;10.25;5.40;;;;;;;30.72;41.07;97988.38;4959185;28;20030;-78
2022/08/21 10:46:57;;;;;;;8.47;5.47;;;;;;;30.73;41.04;97990.00;4976197;28;20092;-77
2022/08/21 10:49:35;;;;;;;11.65;5.63;;;;;;;30.74;41.36;97990.78;4975861;28;20105;-77
2022/08/21 10:52:28;;;;;;;11.35;5.70;;;;;;;30.75;41.10;97987.03;4993423;28;20115;-78
2022/08/21 10:55:04;;;;;;;12.80;5.57;;;;;;;30.77;41.62;97990.25;4993049;28;20027;-77
2022/08/21 10:58:08;;;;;;;10.85;5.57;;;;;;;30.79;41.10;97985.41;4993033;28;20457;-78
2022/08/21 11:00:43;;;;;;;7.03;5.18;;;;;;;30.79;40.79;97985.41;4975063;28;20042;-78
2022/08/21 11:03:18;;;;;;;9.13;5.70;;;;;;;30.84;40.78;97986.22;4992766;28;20038;-77
2022/08/21 11:05:47;;;;;;;10.00;5.57;;;;;;;30.87;40.95;97982.22;4959632;28;20031;-77
2022/08/21 11:08:40;;;;;;;7.88;5.40;;;;;;;30.88;40.86;97983.00;4975090;28;20030;-77
2022/08/21 11:11:25;;;;;;;9.88;5.72;;;;;;;30.88;40.90;97977.63;4975579;28;20026;-78
2022/08/21 11:13:55;;;;;;;6.18;5.05;;;;;;;30.85;40.88;97971.69;4961513;28;20033;-76
2022/08/21 11:16:23;;;;;;;7.28;5.03;;;;;;;30.87;41.48;97981.38;4959240;28;20034;-77
2022/08/21 11:18:51;;;;;;;10.40;6.00;;;;;;;30.87;41.14;97974.13;4991297;28;20022;-77
2022/08/21 11:21:32;;;;;;;10.45;5.63;;;;;;;30.88;41.09;97969.53;4975419;28;20041;-79
2022/08/21 11:24:19;;;;;;;9.48;5.72;;;;;;;30.84;41.36;97962.00;4959982;28;20044;-76
2022/08/21 11:27:01;;;;;;;10.07;5.60;;;;;;;30.92;40.96;97971.44;4975989;28;20072;-77
2022/08/21 11:29:33;;;;;;;8.73;5.65;;;;;;;30.93;41.20;97966.84;4975386;28;20042;-77
2022/08/21 11:32:23;;;;;;;12.05;5.43;;;;;;;30.99;41.02;97965.78;4959403;28;20030;-77
2022/08/21 11:35:00;;;;;;;8.25;5.30;;;;;;;31.01;41.05;97967.16;4991133;28;20058;-78
2022/08/21 11:37:57;;;;;;;7.25;5.38;;;;;;;31.06;41.17;97963.66;4974874;28;20050;-77
2022/08/21 11:40:42;;;;;;;7.53;5.50;;;;;;;31.13;41.16;97955.28;4977161;28;20034;-77
2022/08/21 11:43:31;;;;;;;10.75;5.20;;;;;;;31.18;40.40;97953.38;4958925;28;20034;-76
2022/08/21 11:46:29;;;;;;;8.32;5.10;;;;;;;31.24;40.27;97956.09;4977273;28;20058;-77
2022/08/21 11:49:16;;;;;;;11.02;5.20;;;;;;;31.21;38.96;97952.84;4964324;28;20035;-86
2022/08/21 11:52:05;;;;;;;10.60;5.05;;;;;;;31.23;39.03;97944.47;4990020;28;20065;-88
2022/08/21 11:54:51;;;;;;;11.82;5.57;;;;;;;31.16;39.30;97950.16;4975225;28;20112;-84
2022/08/21 11:57:50;;;;;;;27.05;6.38;;;;;;;31.15;39.29;97939.66;4950531;28;20045;-88
2022/08/21 12:00:18;;;;;;;7.97;5.18;;;;;;;31.14;39.15;97943.44;4967588;28;20100;-83